Time;durP1;ratioP1;P1;durP2;ratioP2;P2;SDS_P1;SDS_P2;PMS_P1;PMS_P2;Temp;Humidity;BMP_temperature;BMP_pressure;BME280_temperature;BME280_humidity;BME280_pressure;Samples;Min_cycle;Max_cycle;Signal;HPM_P1;HPM_P2
2022/08/18 00:02:15;;;;;;;14.55;8.73;;;;;;;18.53;62.16;99393.00;5033322;28;20641;-61
2022/08/18 00:04:42;;;;;;;12.95;8.73;;;;;;;18.49;62.13;99390.13;5031905;28;20502;-59
2022/08/18 00:07:11;;;;;;;15.35;9.18;;;;;;;18.45;62.10;99394.47;5033294;28;20133;-60
2022/08/18 00:09:38;;;;;;;14.75;8.70;;;;;;;18.45;62.35;99397.16;5033255;28;20072;-60
2022/08/18 00:12:11;;;;;;;13.52;8.70;;;;;;;18.36;62.60;99399.69;5033745;28;20087;-60
2022/08/18 00:14:36;;;;;;;16.63;8.50;;;;;;;18.34;62.71;99404.53;5033259;28;20038;-61
2022/08/18 00:17:02;;;;;;;17.75;8.70;;;;;;;18.31;63.24;99407.78;5033371;28;20048;-62
2022/08/18 00:19:28;;;;;;;16.85;9.05;;;;;;;18.28;63.38;99403.00;5032072;28;20411;-61
2022/08/18 00:21:54;;;;;;;15.45;8.32;;;;;;;18.25;63.64;99400.09;5033406;28;20037;-61
2022/08/18 00:24:19;;;;;;;12.80;8.38;;;;;;;18.19;63.79;99401.25;4983523;28;20046;-59
2022/08/18 00:26:45;;;;;;;13.02;8.00;;;;;;;18.20;63.56;99400.16;5030548;28;20045;-59
2022/08/18 00:29:11;;;;;;;14.10;8.25;;;;;;;18.19;63.98;99403.94;5033034;28;20119;-60
2022/08/18 00:31:36;;;;;;;13.00;8.07;;;;;;;18.14;63.95;99392.16;5032471;28;20414;-59
2022/08/18 00:34:02;;;;;;;13.38;8.70;;;;;;;18.12;64.09;99409.66;5032745;28;20049;-63
2022/08/18 00:36:30;;;;;;;13.52;8.93;;;;;;;18.10;64.19;99407.25;5033311;28;20053;-60
2022/08/18 00:38:56;;;;;;;13.48;8.15;;;;;;;18.07;64.47;99405.13;5032488;28;20088;-60
2022/08/18 00:41:23;;;;;;;11.63;8.07;;;;;;;18.03;64.59;99398.75;5033069;28;20045;-59
2022/08/18 00:43:50;;;;;;;13.15;9.23;;;;;;;18.02;64.86;99412.44;5032377;28;20531;-61
2022/08/18 00:46:19;;;;;;;13.00;8.88;;;;;;;17.98;64.93;99409.53;5032444;28;20042;-59
2022/08/18 00:48:45;;;;;;;11.55;8.70;;;;;;;17.95;64.79;99417.38;5032878;28;20130;-60
2022/08/18 00:51:19;;;;;;;12.73;8.45;;;;;;;17.90;65.09;99428.94;5031238;28;20185;-60
2022/08/18 00:53:49;;;;;;;11.73;8.40;;;;;;;17.91;64.95;99431.34;5031946;28;20049;-60
2022/08/18 00:56:23;;;;;;;12.00;8.13;;;;;;;17.90;65.08;99435.09;5031456;28;20068;-59
2022/08/18 00:58:54;;;;;;;13.52;8.60;;;;;;;17.87;64.69;99426.81;5031474;28;20073;-58
2022/08/18 01:01:22;;;;;;;12.88;8.52;;;;;;;17.93;65.19;99431.84;5032535;28;20056;-60
2022/08/18 01:03:52;;;;;;;17.67;9.10;;;;;;;17.90;64.93;99440.44;5031047;28;20037;-59
2022/08/18 01:06:31;;;;;;;;;;;;;;;17.87;64.99;99435.66;5031000;28;20050;-59
2022/08/18 01:08:56;;;;;;;10.73;8.32;;;;;;;17.85;65.08;99429.81;5030812;28;19921;-59
2022/08/18 01:11:23;;;;;;;10.45;8.10;;;;;;;17.86;64.97;99433.28;5030675;28;20545;-59
2022/08/18 01:13:48;;;;;;;11.45;8.75;;;;;;;17.85;64.97;99429.81;5032122;28;20041;-60
2022/08/18 01:21:49;;;;;;;15.55;8.10;;;;;;;17.80;65.17;99419.13;5031853;28;20077;-60
2022/08/18 01:24:16;;;;;;;11.93;8.85;;;;;;;17.78;65.45;99421.28;5031340;28;20530;-59
2022/08/18 01:26:48;;;;;;;13.55;9.40;;;;;;;17.76;65.46;99426.09;5030895;28;20469;-59
2022/08/18 01:29:16;;;;;;;13.23;8.40;;;;;;;17.76;65.69;99441.38;5030465;28;20046;-60
2022/08/18 01:31:48;;;;;;;12.65;8.95;;;;;;;17.74;65.60;99427.47;5032165;28;20046;-59
2022/08/18 01:34:14;;;;;;;13.27;8.43;;;;;;;17.72;66.01;99430.44;5031663;28;20037;-60
2022/08/18 01:36:41;;;;;;;13.82;8.88;;;;;;;17.65;66.36;99433.44;5012711;28;20046;-60
2022/08/18 01:39:11;;;;;;;11.52;8.63;;;;;;;17.62;65.92;99433.22;4983318;28;20506;-59
2022/08/18 01:41:37;;;;;;;;;;;;;;;17.60;66.46;99430.81;5032503;28;20045;-59
2022/08/18 01:44:04;;;;;;;13.20;9.07;;;;;;;17.58;66.55;99432.16;5030821;28;19970;-60
2022/08/18 01:46:33;;;;;;;15.73;8.70;;;;;;;17.54;66.84;99433.81;5030646;28;20085;-59
2022/08/18 01:48:59;;;;;;;13.50;8.50;;;;;;;17.51;67.16;99437.06;5030514;28;20044;-60
2022/08/18 01:51:28;;;;;;;18.38;9.27;;;;;;;17.44;67.47;99435.50;5025727;28;20046;-60
2022/08/18 01:53:55;;;;;;;14.63;9.98;;;;;;;17.36;67.75;99436.13;5011890;28;20037;-60
2022/08/18 01:56:21;;;;;;;14.95;10.05;;;;;;;17.33;68.02;99430.53;5011593;28;20076;-61
2022/08/18 01:58:46;;;;;;;11.38;9.75;;;;;;;17.30;68.15;99431.88;5010546;28;20538;-61
2022/08/18 02:01:14;;;;;;;14.38;9.35;;;;;;;17.29;68.15;99434.81;5010700;28;20041;-60
2022/08/18 02:03:51;;;;;;;18.80;10.10;;;;;;;17.26;68.31;99436.19;5011720;28;20053;-60
2022/08/18 02:06:18;;;;;;;13.40;9.98;;;;;;;17.24;68.60;99422.28;5013885;28;20049;-59
2022/08/18 02:08:45;;;;;;;14.40;8.85;;;;;;;17.23;68.40;99436.75;5010251;28;20045;-61
2022/08/18 02:11:11;;;;;;;14.18;9.70;;;;;;;17.24;68.40;99438.38;5010512;28;20136;-61
2022/08/18 02:13:37;;;;;;;15.50;9.85;;;;;;;17.25;68.20;99434.59;5023605;28;20043;-60
2022/08/18 02:16:03;;;;;;;15.40;10.18;;;;;;;17.29;68.17;99434.81;5014324;28;20045;-59
2022/08/18 02:18:34;;;;;;;14.82;9.93;;;;;;;17.31;68.13;99452.22;5030693;28;20084;-60
2022/08/18 02:21:06;;;;;;;;;;;;;;;17.35;67.92;99442.53;5030538;28;20515;-61
2022/08/18 02:23:32;;;;;;;12.45;9.32;;;;;;;17.42;67.82;99447.59;5014275;28;20378;-61
2022/08/18 02:25:57;;;;;;;14.93;10.02;;;;;;;17.47;67.48;99440.31;5031364;28;20041;-61
2022/08/18 02:28:23;;;;;;;19.85;10.57;;;;;;;17.55;67.49;99454.19;5030425;28;20034;-62
2022/08/18 02:30:49;;;;;;;17.27;9.75;;;;;;;17.60;67.27;99454.94;5030999;28;20519;-60
2022/08/18 02:33:14;;;;;;;14.45;9.85;;;;;;;17.68;66.95;99454.31;5030685;28;20458;-61
2022/08/18 02:35:42;;;;;;;16.27;10.10;;;;;;;17.78;66.55;99463.38;5024369;28;20120;-61
2022/08/18 02:38:09;;;;;;;14.57;10.05;;;;;;;17.89;66.27;99451.47;5011424;28;20049;-59
2022/08/18 02:40:35;;;;;;;20.40;10.40;;;;;;;18.00;65.80;99450.28;5023809;28;20050;-59
2022/08/18 02:43:08;;;;;;;16.83;10.18;;;;;;;18.11;65.54;99450.97;5031068;28;20091;-61
2022/08/18 02:45:36;;;;;;;17.67;9.95;;;;;;;18.17;65.33;99455.19;5029893;28;20064;-60
2022/08/18 02:48:02;;;;;;;17.20;9.70;;;;;;;18.24;64.86;99452.97;5032851;28;20124;-60
2022/08/18 02:50:28;;;;;;;12.15;9.65;;;;;;;18.29;64.65;99458.25;5035218;28;20505;-60
2022/08/18 02:52:54;;;;;;;18.08;10.05;;;;;;;18.23;64.96;99455.94;5021674;28;20038;-60
2022/08/18 02:55:21;;;;;;;14.35;10.00;;;;;;;18.17;65.11;99445.25;5015182;28;20049;-60
2022/08/18 02:57:47;;;;;;;24.85;11.15;;;;;;;18.15;65.31;99460.06;4997504;28;20133;-58
2022/08/18 03:00:16;;;;;;;17.92;10.45;;;;;;;18.22;65.09;99465.06;5015208;28;20539;-61
2022/08/18 03:02:50;;;;;;;14.93;9.88;;;;;;;18.33;64.66;99466.56;5015390;28;20477;-61
2022/08/18 03:05:17;;;;;;;21.00;9.80;;;;;;;18.48;63.97;99466.38;5015289;28;20440;-59
2022/08/18 03:07:43;;;;;;;19.55;10.43;;;;;;;18.71;63.36;99463.94;5026827;28;20033;-59
2022/08/18 03:10:09;;;;;;;18.67;10.18;;;;;;;18.78;63.18;99464.41;5035066;28;20128;-59
2022/08/18 03:12:36;;;;;;;18.27;10.52;;;;;;;18.68;63.56;99468.00;5034811;28;20041;-60
2022/08/18 03:15:02;;;;;;;26.52;10.65;;;;;;;18.53;64.11;99473.53;5034399;28;20041;-59
2022/08/18 03:17:30;;;;;;;12.85;9.68;;;;;;;18.44;64.31;99469.91;5032995;28;20040;-59
2022/08/18 03:19:56;;;;;;;20.38;10.65;;;;;;;18.41;64.35;99465.09;5016842;28;20045;-61
2022/08/18 03:22:24;;;;;;;21.25;10.65;;;;;;;18.39;64.27;99473.47;5032689;28;20087;-62
2022/08/18 03:24:50;;;;;;;20.25;11.45;;;;;;;18.37;64.45;99467.56;5033300;28;20049;-60
2022/08/18 03:27:15;;;;;;;17.25;11.68;;;;;;;18.38;64.29;99466.47;5034500;28;20068;-61
2022/08/18 03:29:41;;;;;;;21.52;11.45;;;;;;;18.43;64.37;99473.69;5034132;28;20406;-59
2022/08/18 03:32:07;;;;;;;22.50;11.73;;;;;;;18.59;63.74;99464.38;5034170;28;20041;-61
2022/08/18 03:34:33;;;;;;;22.92;12.18;;;;;;;18.87;62.73;99473.41;5034175;28;20582;-58
2022/08/18 03:36:59;;;;;;;22.50;12.63;;;;;;;19.13;62.10;99470.34;5032654;28;20048;-60
2022/08/18 03:39:26;;;;;;;24.17;13.80;;;;;;;19.36;61.45;99461.38;5016480;28;20050;-60
2022/08/18 03:41:53;;;;;;;19.80;12.07;;;;;;;19.60;60.70;99465.84;5016108;28;20038;-60
2022/08/18 03:44:20;;;;;;;22.60;11.93;;;;;;;19.81;60.22;99463.63;5032767;28;20033;-60
2022/08/18 03:46:46;;;;;;;19.42;12.57;;;;;;;19.96;59.73;99463.34;5033942;28;20041;-61
2022/08/18 03:49:12;;;;;;;21.27;11.57;;;;;;;20.10;59.42;99466.84;5033497;28;20056;-58
2022/08/18 03:51:42;;;;;;;19.42;12.52;;;;;;;20.29;58.63;99471.31;5033918;28;20041;-58
2022/08/18 03:54:08;;;;;;;22.52;12.68;;;;;;;20.48;58.04;99472.03;5033186;28;20051;-61
2022/08/18 03:56:37;;;;;;;25.15;12.45;;;;;;;20.53;57.94;99465.75;5033891;28;20099;-59
2022/08/18 03:59:09;;;;;;;21.20;13.15;;;;;;;20.63;57.77;99471.72;5033776;28;20042;-59
2022/08/18 04:01:38;;;;;;;24.25;13.55;;;;;;;20.75;57.42;99471.19;5033882;28;20073;-61
2022/08/18 04:04:05;;;;;;;23.05;13.45;;;;;;;20.89;56.92;99467.69;5032773;28;20427;-58
2022/08/18 04:06:43;;;;;;;26.50;14.38;;;;;;;21.08;56.44;99479.88;5029827;28;20053;-61
2022/08/18 04:09:11;;;;;;;28.25;14.18;;;;;;;21.17;56.04;99463.00;5033320;28;20099;-60
2022/08/18 04:11:38;;;;;;;21.92;13.73;;;;;;;21.24;55.91;99463.38;5015789;28;20095;-60
2022/08/18 04:14:04;;;;;;;22.75;13.45;;;;;;;21.29;55.73;99468.63;5029378;28;20047;-60
2022/08/18 04:16:31;;;;;;;24.50;13.23;;;;;;;21.44;55.17;99473.72;5032328;28;20072;-59
2022/08/18 04:19:02;;;;;;;19.38;12.68;;;;;;;21.55;55.08;99468.84;5024920;28;20088;-60
2022/08/18 04:21:33;;;;;;;22.67;13.48;;;;;;;21.75;54.63;99475.63;5015854;28;20499;-60
2022/08/18 04:24:03;;;;;;;20.48;12.73;;;;;;;21.92;53.76;99474.91;5013932;28;20034;-60
2022/08/18 04:26:44;;;;;;;28.75;14.50;;;;;;;22.00;53.67;99474.97;5013940;28;20189;-61
2022/08/18 04:29:12;;;;;;;25.70;13.50;;;;;;;22.10;53.38;99473.09;5012557;28;20117;-58
2022/08/18 04:31:38;;;;;;;21.52;13.38;;;;;;;22.15;52.93;99464.88;5026067;28;20071;-61
2022/08/18 04:34:05;;;;;;;24.27;13.23;;;;;;;22.24;52.97;99465.72;5033137;28;20441;-60
2022/08/18 04:36:35;;;;;;;21.10;13.23;;;;;;;22.42;52.66;99467.34;5033313;28;20053;-60
2022/08/18 04:39:04;;;;;;;20.67;14.20;;;;;;;22.59;51.72;99468.47;5033112;28;20141;-60
2022/08/18 04:41:29;;;;;;;21.38;14.48;;;;;;;22.67;51.49;99475.81;5033446;28;20080;-59
2022/08/18 04:44:00;;;;;;;23.05;14.32;;;;;;;22.67;51.73;99473.91;5032066;28;20073;-61
2022/08/18 04:46:27;;;;;;;20.92;15.80;;;;;;;22.64;51.28;99477.22;5027684;28;20458;-60
2022/08/18 04:48:57;;;;;;;25.98;16.15;;;;;;;22.61;51.54;99471.66;5013406;28;20559;-60
2022/08/18 05:07:59;;;;;;;30.00;19.30;;;;;;;22.39;52.81;99494.19;5032686;28;20060;-60
2022/08/18 05:10:25;;;;;;;35.35;23.15;;;;;;;22.40;52.25;99490.38;5032426;28;20050;-60
2022/08/18 05:12:51;;;;;;;35.13;24.38;;;;;;;22.46;52.43;99494.50;5031711;28;20071;-61
2022/08/18 05:15:17;;;;;;;42.83;24.88;;;;;;;22.45;52.73;99491.03;5030851;28;20045;-61
2022/08/18 05:17:44;;;;;;;38.17;26.10;;;;;;;22.42;52.85;99488.94;5032093;28;20045;-59
2022/08/18 05:20:10;;;;;;;48.10;27.55;;;;;;;22.50;52.84;99494.69;5032219;28;20057;-59
2022/08/18 05:22:40;;;;;;;39.83;27.27;;;;;;;22.60;52.52;99497.09;5032340;28;20136;-61
2022/08/18 05:25:10;;;;;;;42.85;28.35;;;;;;;22.70;52.10;99494.09;5032325;28;20071;-58
2022/08/18 05:27:36;;;;;;;;;;;;;;;22.76;52.44;99492.81;5032386;28;20119;-60
2022/08/18 05:30:04;;;;;;;48.75;34.13;;;;;;;22.79;52.13;99491.41;5031850;28;19976;-60
2022/08/18 05:32:41;;;;;;;46.33;33.13;;;;;;;22.82;52.36;99491.56;5030644;28;20461;-61
2022/08/18 05:35:12;;;;;;;62.00;41.92;;;;;;;22.88;52.13;99495.72;5030491;28;20425;-60
2022/08/18 05:38:17;;;;;;;60.55;43.53;;;;;;;22.91;51.95;99505.09;5030290;28;20041;-59
2022/08/18 05:40:44;;;;;;;73.75;53.80;;;;;;;22.97;51.63;99501.19;4998926;28;20060;-60
2022/08/18 05:43:11;;;;;;;86.80;64.75;;;;;;;23.02;51.05;99506.41;5030553;28;20692;-61
2022/08/18 05:45:38;;;;;;;101.57;73.07;;;;;;;23.00;51.15;99497.00;5030423;28;20052;-59
2022/08/18 05:48:04;;;;;;;109.97;78.75;;;;;;;23.04;50.92;99493.38;5009111;28;20038;-60
2022/08/18 05:50:31;;;;;;;109.07;81.78;;;;;;;23.07;50.46;99497.34;5031873;28;20082;-60
2022/08/18 05:53:00;;;;;;;116.35;87.25;;;;;;;23.14;50.81;99505.78;5031118;28;20037;-59
2022/08/18 05:58:23;;;;;;;118.35;87.13;;;;;;;23.08;50.42;99507.84;5031407;28;20086;-60
2022/08/18 06:00:55;;;;;;;122.32;87.68;;;;;;;23.21;49.96;99508.81;5024502;28;20042;-59
2022/08/18 06:03:25;;;;;;;112.93;83.00;;;;;;;23.23;50.17;99500.38;5028710;28;20037;-60
2022/08/18 06:05:57;;;;;;;102.47;76.78;;;;;;;23.28;50.12;99503.72;5031741;28;20068;-60
2022/08/18 06:08:45;;;;;;;106.35;77.20;;;;;;;23.34;50.46;99498.94;5030353;28;20080;-59
2022/08/18 06:11:11;;;;;;;105.50;77.03;;;;;;;23.46;50.47;99509.09;5029254;28;20175;-59
2022/08/18 06:13:41;;;;;;;109.25;82.47;;;;;;;23.54;49.56;99511.00;5031465;28;20128;-61
2022/08/18 06:16:19;;;;;;;118.38;80.70;;;;;;;23.63;49.64;99508.28;5027853;28;20048;-60
2022/08/18 06:19:10;;;;;;;104.50;78.95;;;;;;;23.66;49.85;99504.94;5026199;28;20048;-61
2022/08/18 06:21:57;;;;;;;109.32;84.55;;;;;;;23.66;49.41;99505.72;5027352;28;20045;-60
2022/08/18 06:24:35;;;;;;;113.82;83.50;;;;;;;23.68;49.37;99508.09;5028880;28;20302;-58
2022/08/18 06:27:28;;;;;;;121.63;94.28;;;;;;;23.77;48.40;99509.72;5029641;28;20072;-61
2022/08/18 06:30:14;;;;;;;127.53;92.57;;;;;;;23.80;49.09;99513.69;5022411;28;20495;-61
2022/08/18 06:33:08;;;;;;;127.25;96.82;;;;;;;23.92;48.21;99510.31;5013055;28;20044;-59
2022/08/18 06:35:50;;;;;;;131.30;96.45;;;;;;;24.02;48.28;99508.03;5028447;28;20409;-61
2022/08/18 06:38:50;;;;;;;141.93;103.18;;;;;;;24.06;48.72;99519.03;5022994;28;20045;-61
2022/08/18 06:41:20;;;;;;;141.45;107.25;;;;;;;24.13;48.68;99524.75;5006976;28;20050;-60
2022/08/18 06:43:59;;;;;;;154.77;111.63;;;;;;;24.20;47.99;99524.22;5025671;28;20057;-57
2022/08/18 06:46:51;;;;;;;148.30;111.63;;;;;;;24.25;47.77;99518.63;5016264;28;20045;-59
2022/08/18 06:49:23;;;;;;;150.40;113.90;;;;;;;24.28;47.45;99525.31;5005971;28;20090;-61
2022/08/18 06:51:49;;;;;;;159.18;118.65;;;;;;;24.32;47.25;99526.25;5010164;28;20033;-60
2022/08/18 06:54:17;;;;;;;147.38;110.22;;;;;;;24.39;47.23;99516.50;5025048;28;20044;-60
2022/08/18 06:56:49;;;;;;;142.73;109.03;;;;;;;24.44;46.58;99521.78;5026408;28;20056;-60
2022/08/18 06:59:26;;;;;;;153.05;110.45;;;;;;;24.41;47.01;99522.41;5011952;28;20044;-60
2022/08/18 07:02:11;;;;;;;146.07;108.22;;;;;;;24.38;46.33;99520.31;5006785;28;20042;-59
2022/08/18 07:04:42;;;;;;;145.65;109.32;;;;;;;24.50;46.60;99516.16;5006423;28;20050;-58
2022/08/18 07:07:38;;;;;;;128.30;98.18;;;;;;;24.59;46.26;99512.28;5021253;28;20045;-58
2022/08/18 07:10:28;;;;;;;131.55;88.78;;;;;;;24.67;46.38;99524.97;5027167;28;20403;-59
2022/08/18 07:13:25;;;;;;;95.22;75.88;;;;;;;24.69;45.42;99524.66;5029277;28;20045;-60
2022/08/18 07:15:53;;;;;;;84.40;62.85;;;;;;;24.74;44.98;99523.66;5028878;28;20061;-59
2022/08/18 07:18:25;;;;;;;89.32;63.28;;;;;;;24.78;45.31;99527.31;5028044;28;20128;-59
2022/08/18 07:21:00;;;;;;;77.68;54.17;;;;;;;24.76;45.08;99529.56;5027463;28;20044;-60
2022/08/18 07:23:38;;;;;;;74.25;53.95;;;;;;;24.89;44.83;99520.41;5026414;28;20038;-59
2022/08/18 07:26:16;;;;;;;63.97;48.35;;;;;;;24.98;44.72;99536.63;5007107;28;20096;-60
2022/08/18 07:28:44;;;;;;;66.10;46.65;;;;;;;24.97;44.63;99527.66;5007427;28;20132;-60
2022/08/18 07:31:13;;;;;;;60.63;44.42;;;;;;;25.00;45.25;99529.75;5005998;28;20053;-61
2022/08/18 07:33:42;;;;;;;57.25;40.75;;;;;;;25.07;44.41;99529.22;5026347;28;20041;-60
2022/08/18 07:36:09;;;;;;;53.65;40.42;;;;;;;25.17;44.38;99526.09;5028351;28;20046;-61
2022/08/18 07:38:41;;;;;;;59.63;37.13;;;;;;;25.24;44.07;99523.69;4994239;28;20076;-61
2022/08/18 07:41:25;;;;;;;49.95;34.60;;;;;;;25.28;43.46;99531.94;5009560;28;20518;-60
2022/08/18 07:44:04;;;;;;;42.10;30.20;;;;;;;25.31;43.60;99525.84;5011700;28;20567;-61
2022/08/18 07:46:35;;;;;;;41.00;28.08;;;;;;;25.42;42.89;99529.75;5009556;28;20049;-61
2022/08/18 07:49:02;;;;;;;36.80;26.27;;;;;;;25.52;42.62;99531.25;5009685;28;20400;-62
2022/08/18 07:51:53;;;;;;;38.55;25.05;;;;;;;25.60;42.33;99525.75;5011961;28;20050;-62
2022/08/18 07:54:31;;;;;;;30.63;23.25;;;;;;;25.68;42.31;99526.78;5011437;28;20041;-61
2022/08/18 07:57:26;;;;;;;29.05;20.13;;;;;;;25.71;41.81;99522.63;5011040;28;20117;-62
2022/08/18 08:00:16;;;;;;;28.73;19.75;;;;;;;25.72;41.83;99532.34;5012796;28;20050;-60
2022/08/18 08:03:10;;;;;;;23.20;16.58;;;;;;;25.80;41.15;99528.75;5025736;28;20128;-62
2022/08/18 08:05:51;;;;;;;19.13;15.38;;;;;;;25.93;40.57;99529.59;5010502;28;20108;-60
2022/08/18 08:08:44;;;;;;;19.08;12.88;;;;;;;26.05;40.18;99529.59;5008964;28;20395;-62
2022/08/18 08:11:38;;;;;;;22.73;13.27;;;;;;;26.18;40.23;99528.50;4993354;28;20534;-61
2022/08/18 08:14:22;;;;;;;17.85;11.77;;;;;;;26.29;39.73;99528.84;5007800;28;20129;-60
2022/08/18 08:16:50;;;;;;;22.83;12.68;;;;;;;26.39;39.63;99533.03;4993973;28;20053;-63
2022/08/18 08:19:36;;;;;;;18.75;10.85;;;;;;;26.44;39.22;99538.25;5011406;28;20070;-62
2022/08/18 08:22:18;;;;;;;17.85;10.45;;;;;;;26.46;39.35;99535.97;5009017;28;20052;-61
2022/08/18 08:25:07;;;;;;;15.68;10.38;;;;;;;26.48;39.11;99544.59;5009711;28;20052;-62
2022/08/18 08:27:49;;;;;;;10.60;8.38;;;;;;;26.39;38.92;99538.47;5009376;28;20041;-63
2022/08/18 08:30:17;;;;;;;17.63;8.82;;;;;;;26.33;39.26;99537.91;5008300;28;20085;-62
2022/08/18 08:32:46;;;;;;;13.30;8.23;;;;;;;26.28;39.45;99536.19;5010467;28;20034;-63
2022/08/18 08:35:14;;;;;;;10.90;7.25;;;;;;;26.28;39.26;99536.19;5007991;28;20061;-61
2022/08/18 08:37:43;;;;;;;13.75;7.15;;;;;;;26.37;39.17;99529.88;5007026;28;20536;-62
2022/08/18 08:40:45;;;;;;;15.40;8.15;;;;;;;26.47;39.01;99532.13;5008997;28;20126;-61
2022/08/18 08:43:14;;;;;;;13.60;7.88;;;;;;;26.54;38.79;99528.88;4999459;28;20054;-61
2022/08/18 08:46:07;;;;;;;15.30;7.40;;;;;;;26.57;38.92;99534.44;5006300;28;20588;-61
2022/08/18 08:48:39;;;;;;;13.20;7.75;;;;;;;26.58;39.11;99533.28;5008865;28;20480;-60
2022/08/18 08:51:15;;;;;;;11.88;7.70;;;;;;;26.55;39.44;99528.53;5008264;28;20054;-61
2022/08/18 08:53:48;;;;;;;9.63;7.57;;;;;;;26.52;39.53;99534.66;5010024;28;20041;-62
2022/08/18 08:56:16;;;;;;;11.27;6.80;;;;;;;26.46;38.90;99538.69;4974559;28;20643;-63
2022/08/18 08:58:52;;;;;;;9.45;6.93;;;;;;;26.44;39.06;99528.19;5008152;28;20041;-61
2022/08/18 09:01:39;;;;;;;12.00;7.20;;;;;;;26.42;39.39;99533.16;5005484;28;20045;-61
2022/08/18 09:04:23;;;;;;;11.23;6.50;;;;;;;26.44;39.41;99536.34;5007425;28;20053;-61
2022/08/18 09:07:26;;;;;;;9.75;6.63;;;;;;;26.53;39.57;99530.78;5008936;28;20415;-63
2022/08/18 09:10:26;;;;;;;14.95;6.65;;;;;;;26.66;39.03;99534.31;5008393;28;20411;-60
2022/08/18 09:12:54;;;;;;;8.75;6.15;;;;;;;26.75;38.87;99526.81;5006055;28;20141;-62
2022/08/18 09:15:38;;;;;;;12.43;6.22;;;;;;;26.79;39.02;99516.81;5008135;28;20402;-61
2022/08/18 09:18:29;;;;;;;9.80;5.78;;;;;;;26.84;38.34;99522.03;5008345;28;20041;-61
2022/08/18 09:21:33;;;;;;;18.80;4.82;;;;;;;26.76;36.92;99524.88;5006444;28;20085;-62
2022/08/18 09:24:09;;;;;;;7.38;4.60;;;;;;;26.71;36.50;99531.38;5008147;28;20419;-62
2022/08/18 09:27:24;;;;;;;10.43;5.18;;;;;;;26.68;36.84;99532.84;5008903;28;20041;-63
2022/08/18 09:29:53;;;;;;;7.45;4.85;;;;;;;26.71;36.17;99523.22;4973709;28;20065;-61
2022/08/18 09:32:19;;;;;;;8.25;4.72;;;;;;;26.66;36.80;99524.22;5005159;28;20515;-62
2022/08/18 09:35:01;;;;;;;6.15;4.28;;;;;;;26.67;36.75;99525.78;4989440;28;20077;-62
2022/08/18 09:37:32;;;;;;;5.43;4.47;;;;;;;26.76;35.94;99524.88;5006026;28;20057;-60
2022/08/18 09:42:53;;;;;;;11.43;4.80;;;;;;;26.78;36.07;99542.44;5007563;28;20042;-61
2022/08/18 09:45:31;;;;;;;9.38;4.50;;;;;;;26.77;36.29;99527.28;5008974;28;20081;-62
2022/08/18 09:48:02;;;;;;;8.15;5.18;;;;;;;26.82;36.22;99520.78;5006863;28;20042;-59
2022/08/18 09:50:27;;;;;;;12.45;4.60;;;;;;;26.89;36.29;99524.53;5006322;28;20096;-60
2022/08/18 09:52:58;;;;;;;13.57;4.90;;;;;;;26.98;36.51;99523.63;5008542;28;20128;-60
2022/08/18 09:55:24;;;;;;;7.82;4.80;;;;;;;27.01;35.91;99540.03;5016731;28;20092;-60
2022/08/18 09:58:19;;;;;;;6.55;4.78;;;;;;;26.94;35.96;99528.94;5022365;28;20033;-60
2022/08/18 10:01:20;;;;;;;10.25;5.32;;;;;;;26.92;36.36;99534.72;5012935;28;20667;-63
2022/08/18 10:04:12;;;;;;;11.95;4.50;;;;;;;27.00;35.69;99532.19;5025419;28;20156;-60
2022/08/18 10:06:39;;;;;;;9.98;4.35;;;;;;;26.97;35.65;99520.06;5014937;28;20442;-62
2022/08/18 10:09:49;;;;;;;9.85;4.95;;;;;;;26.92;35.58;99550.25;5025334;28;20473;-62
2022/08/18 10:12:36;;;;;;;7.55;4.00;;;;;;;26.85;35.49;99531.00;5027038;28;20056;-62
2022/08/18 10:15:17;;;;;;;9.63;4.45;;;;;;;26.76;35.68;99524.88;5026558;28;20056;-63
2022/08/18 10:17:57;;;;;;;16.20;5.00;;;;;;;26.74;36.26;99549.72;5028999;28;20051;-61
2022/08/18 10:20:45;;;;;;;12.77;4.53;;;;;;;26.76;35.69;99527.59;4993603;28;20053;-61
2022/08/18 10:23:46;;;;;;;8.90;4.75;;;;;;;26.71;35.63;99543.03;5007520;28;20486;-63
2022/08/18 10:26:30;;;;;;;8.13;4.63;;;;;;;26.79;36.08;99522.28;5009176;28;20448;-61
2022/08/18 10:28:57;;;;;;;7.60;4.80;;;;;;;26.85;35.85;99525.56;5010107;28;20057;-64
2022/08/18 10:31:24;;;;;;;10.93;4.80;;;;;;;26.85;35.88;99520.91;4995655;28;20058;-62
2022/08/18 10:33:57;;;;;;;11.43;5.10;;;;;;;26.87;35.90;99513.19;5008846;28;20137;-62
2022/08/18 10:36:52;;;;;;;10.32;4.80;;;;;;;26.92;36.07;99515.69;5010971;28;20041;-62
2022/08/18 10:39:44;;;;;;;6.70;4.53;;;;;;;26.93;35.94;99519.97;5011313;28;20046;-63
2022/08/18 10:42:18;;;;;;;7.15;4.45;;;;;;;26.93;35.84;99509.09;5028254;28;20056;-63
2022/08/18 10:44:46;;;;;;;8.93;4.63;;;;;;;27.04;36.15;99514.88;5028753;28;20045;-62
2022/08/18 10:47:25;;;;;;;6.63;4.22;;;;;;;27.13;35.81;99507.34;5013126;28;20041;-63
2022/08/18 10:49:51;;;;;;;16.60;4.70;;;;;;;27.24;36.00;99529.47;5027377;28;20044;-63
2022/08/18 10:52:23;;;;;;;8.10;4.30;;;;;;;27.27;36.19;99508.94;5007791;28;20050;-62
2022/08/18 10:55:07;;;;;;;8.15;4.25;;;;;;;27.26;35.91;99510.06;5017099;28;20512;-60
2022/08/18 10:58:08;;;;;;;11.52;5.30;;;;;;;27.28;35.96;99510.50;5039197;28;20144;-61
2022/08/18 11:01:06;;;;;;;12.68;4.80;;;;;;;27.20;35.40;99531.28;5026037;28;20044;-62
2022/08/18 11:04:04;;;;;;;18.15;5.25;;;;;;;27.24;35.23;99512.31;5041597;28;20049;-62
2022/08/18 11:06:38;;;;;;;11.73;4.97;;;;;;;27.23;35.35;99510.75;5024949;28;20132;-60
2022/08/18 11:09:04;;;;;;;6.40;4.60;;;;;;;27.24;35.14;99504.16;5028164;28;20123;-60
2022/08/18 11:11:41;;;;;;;10.18;4.68;;;;;;;27.30;35.33;99498.16;5032648;28;20045;-61
2022/08/18 11:14:13;;;;;;;8.93;4.00;;;;;;;27.47;34.97;99499.75;5029114;28;20498;-63
2022/08/18 11:16:42;;;;;;;8.57;4.70;;;;;;;27.44;34.36;99502.38;5031178;28;20084;-62
2022/08/18 11:19:10;;;;;;;5.95;4.00;;;;;;;27.38;34.47;99502.66;5031122;28;20133;-62
2022/08/18 11:21:35;;;;;;;7.55;4.30;;;;;;;27.47;35.09;99502.47;5029878;28;20030;-63
2022/08/18 11:24:03;;;;;;;12.25;5.25;;;;;;;27.49;35.17;99497.47;5033573;28;20049;-63
2022/08/18 11:26:30;;;;;;;10.75;4.65;;;;;;;27.51;34.92;99495.22;5032463;28;20088;-63
2022/08/18 11:28:56;;;;;;;7.50;4.93;;;;;;;27.61;35.13;99483.78;5032946;28;20049;-64
2022/08/18 11:31:23;;;;;;;6.38;4.40;;;;;;;27.73;34.57;99479.41;5033987;28;20064;-61
2022/08/18 11:33:49;;;;;;;7.50;4.40;;;;;;;27.78;34.28;99482.72;5031351;28;20474;-63
2022/08/18 11:36:15;;;;;;;9.75;4.80;;;;;;;27.77;34.00;99475.66;5030846;28;20076;-63
2022/08/18 11:38:53;;;;;;;8.18;4.47;;;;;;;27.63;33.86;99484.25;5013722;28;20522;-61
2022/08/18 11:41:25;;;;;;;5.05;4.20;;;;;;;27.57;33.50;99487.56;4996457;28;20072;-62
2022/08/18 11:43:56;;;;;;;6.82;4.13;;;;;;;27.51;32.99;99488.97;5016586;28;20100;-63
2022/08/18 11:46:39;;;;;;;8.68;4.03;;;;;;;27.49;32.91;99488.53;5013639;28;20100;-62
2022/08/18 11:49:17;;;;;;;5.35;3.95;;;;;;;27.48;32.63;99498.63;5012793;28;20498;-63
2022/08/18 11:52:18;;;;;;;7.95;3.83;;;;;;;27.45;33.14;99495.81;5028505;28;20052;-62
2022/08/18 11:54:47;;;;;;;7.90;4.85;;;;;;;27.51;32.89;99480.81;5012623;28;20049;-61
2022/08/18 11:57:30;;;;;;;9.38;4.45;;;;;;;27.53;32.63;99487.50;5022799;28;20045;-63
2022/08/18 11:59:57;;;;;;;7.28;4.18;;;;;;;27.58;32.53;99483.72;5031817;28;20443;-60
2022/08/18 12:02:24;;;;;;;7.95;4.47;;;;;;;27.56;32.10;99494.97;5016647;28;20544;-60
2022/08/18 12:04:56;;;;;;;6.85;4.28;;;;;;;27.53;31.86;99482.03;5013497;28;20076;-61
2022/08/18 12:07:34;;;;;;;6.10;3.95;;;;;;;27.54;32.00;99483.63;5012234;28;20057;-61
2022/08/18 12:10:23;;;;;;;8.18;3.70;;;;;;;27.52;30.58;99466.84;5026989;28;20037;-60
2022/08/18 12:12:51;;;;;;;7.70;3.63;;;;;;;27.57;31.06;99476.69;5014319;28;20529;-61
2022/08/18 12:15:17;;;;;;;6.72;3.20;;;;;;;27.61;29.86;99477.56;5030901;28;20092;-60
2022/08/18 12:17:44;;;;;;;8.30;3.92;;;;;;;27.61;29.71;99478.34;5031169;28;20045;-63
2022/08/18 12:20:12;;;;;;;5.47;3.35;;;;;;;27.63;29.25;99473.34;5026982;28;20050;-60